Flight Track Log - Related Links

Times and Time Zones

All times are in EDT time to prevent confusion due to time zone crossing. See the AAL1170 flight status page for this flight to view local times or setup timezone preferences in your user account.

Time Position Orientation Groundspeed Altitude Reporting Facility
EDT Latitude Longitude Course Direction KTS MPH feet Rate Location/Type
Fri 06:14:00 AM 41.7207 -72.5854 160° South  Level FlightAware Approximate
Fri 06:15:00 AM 41.6226 -72.5172 132° Southeast  Level FlightAware Approximate
Fri 06:16:00 AM 41.5480 -72.4022 129° Southeast  Level FlightAware Approximate
Fri 06:17:00 AM 41.4529 -72.3500 180° South  Level FlightAware Approximate
Fri 06:18:00 AM 41.3398 -72.3344 173° South  Level FlightAware Approximate
Fri 06:19:00 AM 41.2412 -72.3794 201° Southwest  Level FlightAware Approximate
Fri 06:20:00 AM 41.1653 -72.4847 217° Southwest  Level FlightAware Approximate
Fri 06:21:00 AM 41.0842 -72.5903 229° Southwest  Level FlightAware Approximate
Fri 06:22:00 AM 40.9981 -72.6883 221° Southwest  Level FlightAware Approximate
Fri 06:23:00 AM 40.9121 -72.7868 210° Southwest  Level FlightAware Approximate
Fri 06:24:00 AM 40.8103 -72.8532 201° Southwest  Level FlightAware Approximate
Fri 06:25:00 AM 40.7025 -72.9013 198° South  Level FlightAware Approximate
Fri 06:26:00 AM 40.5965 -72.9555 205° Southwest  Level FlightAware Approximate
Fri 06:27:00 AM 40.4913 -73.0127 201° Southwest  Level FlightAware Approximate
Fri 06:28:00 AM 40.3849 -73.0659 201° Southwest  Level FlightAware Approximate
Fri 06:29:00 AM 40.2790 -73.1206 203° Southwest  Level FlightAware Approximate
Fri 06:30:00 AM 40.1739 -73.1779 203° Southwest  Level FlightAware Approximate
Fri 06:31:00 AM 40.0778 -73.2555 217° Southwest  Level FlightAware Approximate
Fri 06:32:00 AM 39.9917 -73.3526 221° Southwest  Level FlightAware Approximate
Fri 06:33:00 AM 39.9061 -73.4505 221° Southwest  Level FlightAware Approximate
Fri 06:34:00 AM 39.8203 -73.5480 221° Southwest  Level FlightAware Approximate
Fri 06:35:00 AM 39.7341 -73.6447 221° Southwest  Level FlightAware Approximate
Fri 06:36:00 AM 39.6479 -73.7412 221° Southwest  Level FlightAware Approximate
Fri 06:37:00 AM 39.5615 -73.8375 221° Southwest  Level FlightAware Approximate
Fri 06:38:00 AM 39.4751 -73.9335 221° Southwest  Level FlightAware Approximate
Fri 06:39:00 AM 39.3885 -74.0292 220° Southwest  Level FlightAware Approximate
Fri 06:40:00 AM 39.3010 -74.1235 220° Southwest  Level FlightAware Approximate
Fri 06:41:00 AM 39.2136 -74.2175 220° Southwest  Level FlightAware Approximate
Fri 06:42:00 AM 39.1260 -74.3113 220° Southwest  Level FlightAware Approximate
Fri 06:43:00 AM 39.0384 -74.4049 220° Southwest  Level FlightAware Approximate
Fri 06:44:00 AM 38.9506 -74.4983 220° Southwest  Level FlightAware Approximate
Fri 06:45:00 AM 38.8637 -74.5928 220° Southwest  Level FlightAware Approximate
Fri 06:46:00 AM 38.7770 -74.6873 220° Southwest  Level FlightAware Approximate
Fri 06:47:00 AM 38.6895 -74.7808 220° Southwest  Level FlightAware Approximate
Fri 06:48:00 AM 38.6018 -74.8736 220° Southwest  Level FlightAware Approximate
Fri 06:49:00 AM 38.5139 -74.9661 220° Southwest  Level FlightAware Approximate
Fri 06:50:00 AM 38.4260 -75.0585 219° Southwest  Level FlightAware Approximate
Fri 06:51:00 AM 38.3380 -75.1506 219° Southwest  Level FlightAware Approximate
Fri 06:52:00 AM 38.2499 -75.2425 219° Southwest  Level FlightAware Approximate
Fri 06:53:00 AM 38.1618 -75.3342 219° Southwest  Level FlightAware Approximate
Fri 06:54:00 AM 38.0736 -75.4256 219° Southwest  Level FlightAware Approximate
Fri 06:55:00 AM 37.9748 -75.4959 206° Southwest  Level FlightAware Approximate
Fri 06:56:00 AM 37.8722 -75.5584 206° Southwest  Level FlightAware Approximate
Fri 06:57:00 AM 37.7696 -75.6207 206° Southwest  Level FlightAware Approximate
Fri 06:58:00 AM 37.6669 -75.6828 206° Southwest  Level FlightAware Approximate
Fri 06:59:00 AM 37.5642 -75.7447 206° Southwest  Level FlightAware Approximate
Fri 07:00:00 AM 37.4614 -75.8065 206° Southwest  Level FlightAware Approximate
Fri 07:01:00 AM 37.3589 -75.8688 206° Southwest  Level FlightAware Approximate
Fri 07:02:00 AM 37.2565 -75.9314 206° Southwest  Level FlightAware Approximate
Fri 07:03:00 AM 37.1541 -75.9939 206° Southwest  Level FlightAware Approximate
Fri 07:04:00 AM 37.0503 -76.0522 203° Southwest  Level FlightAware Approximate
Fri 07:05:00 AM 36.9456 -76.1080 203° Southwest  Level FlightAware Approximate
Fri 07:06:00 AM 36.8417 -76.1661 207° Southwest  Level FlightAware Approximate
Fri 07:07:00 AM 36.7405 -76.2312 207° Southwest  Level FlightAware Approximate
Fri 07:08:00 AM 36.6393 -76.2962 207° Southwest  Level FlightAware Approximate
Fri 07:09:00 AM 36.5349 -76.3526 203° Southwest  Level FlightAware Approximate
Fri 07:10:00 AM 36.4303 -76.4084 203° Southwest  Level FlightAware Approximate
Fri 07:11:00 AM 36.3260 -76.4651 204° Southwest  Level FlightAware Approximate
Fri 07:12:00 AM 36.2221 -76.5227 204° Southwest  Level FlightAware Approximate
Fri 07:13:00 AM 36.1181 -76.5801 204° Southwest  Level FlightAware Approximate
Fri 07:14:00 AM 36.0141 -76.6374 204° Southwest  Level FlightAware Approximate
Fri 07:15:00 AM 35.9101 -76.6945 204° Southwest  Level FlightAware Approximate
Fri 07:16:00 AM 35.8071 -76.7543 205° Southwest  Level FlightAware Approximate
Fri 07:17:00 AM 35.7042 -76.8142 205° Southwest  Level FlightAware Approximate
Fri 07:18:00 AM 35.6002 -76.8712 204° Southwest  Level FlightAware Approximate
Fri 07:19:00 AM 35.4962 -76.9283 205° Southwest  Level FlightAware Approximate
Fri 07:20:00 AM 35.3929 -76.9869 205° Southwest  Level FlightAware Approximate
Fri 07:21:00 AM 35.2896 -77.0454 205° Southwest  Level FlightAware Approximate
Fri 07:22:00 AM 35.1862 -77.1038 205° Southwest  Level FlightAware Approximate
Fri 07:23:00 AM 35.0828 -77.1619 205° Southwest  Level FlightAware Approximate
Fri 07:24:00 AM 34.9794 -77.2200 205° Southwest  Level FlightAware Approximate
Fri 07:25:00 AM 34.8759 -77.2779 205° Southwest  Level FlightAware Approximate
Fri 07:26:00 AM 34.7724 -77.3357 205° Southwest  Level FlightAware Approximate
Fri 07:27:00 AM 34.6689 -77.3933 205° Southwest  Level FlightAware Approximate
Fri 07:28:00 AM 34.5653 -77.4505 195° South  Level FlightAware Approximate
Fri 07:29:00 AM 34.4553 -77.4861 195° South  Level FlightAware Approximate
Fri 07:30:00 AM 34.3453 -77.5216 195° South  Level FlightAware Approximate
Fri 07:31:00 AM 34.2353 -77.5570 195° South  Level FlightAware Approximate
Fri 07:32:00 AM 34.1253 -77.5923 195° South  Level FlightAware Approximate
Fri 07:33:00 AM 34.0152 -77.6276 195° South  Level FlightAware Approximate
Fri 07:34:00 AM 33.9052 -77.6627 195° South  Level FlightAware Approximate
Fri 07:35:00 AM 33.7952 -77.6978 195° South  Level FlightAware Approximate
Fri 07:36:00 AM 33.6851 -77.7328 195° South  Level FlightAware Approximate
Fri 07:37:00 AM 33.5750 -77.7675 195° South  Level FlightAware Approximate
Fri 07:38:00 AM 33.4649 -77.8022 195° South  Level FlightAware Approximate
Fri 07:39:00 AM 33.3548 -77.8368 195° South  Level FlightAware Approximate
Fri 07:40:00 AM 33.2447 -77.8713 195° South  Level FlightAware Approximate
Fri 07:41:00 AM 33.1345 -77.9057 195° South  Level FlightAware Approximate
Fri 07:42:00 AM 33.0244 -77.9400 195° South  Level FlightAware Approximate
Fri 07:43:00 AM 32.9142 -77.9743 195° South  Level FlightAware Approximate
Fri 07:44:00 AM 32.8041 -78.0084 195° South  Level FlightAware Approximate
Fri 07:45:00 AM 32.6939 -78.0425 195° South  Level FlightAware Approximate
Fri 07:46:00 AM 32.5838 -78.0764 195° South  Level FlightAware Approximate
Fri 07:47:00 AM 32.4736 -78.1103 195° South  Level FlightAware Approximate
Fri 07:48:00 AM 32.3634 -78.1442 195° South  Level FlightAware Approximate
Fri 07:49:00 AM 32.2532 -78.1779 195° South  Level FlightAware Approximate
Fri 07:50:00 AM 32.1429 -78.2115 194° South  Level FlightAware Approximate
Fri 07:51:00 AM 32.0327 -78.2451 194° South  Level FlightAware Approximate
Fri 07:52:00 AM 31.9224 -78.2783 194° South  Level FlightAware Approximate
Fri 07:53:00 AM 31.8121 -78.3114 194° South  Level FlightAware Approximate
Fri 07:54:00 AM 31.7018 -78.3445 194° South  Level FlightAware Approximate
Fri 07:55:00 AM 31.5928 -78.3829 197° South  Level FlightAware Approximate
Fri 07:56:00 AM 31.4839 -78.4215 194° South  Level FlightAware Approximate
Fri 07:57:00 AM 31.3736 -78.4546 194° South  Level FlightAware Approximate
Fri 07:58:00 AM 31.2638 -78.4899 196° South  Level FlightAware Approximate
Fri 07:59:00 AM 31.1544 -78.5264 196° South  Level FlightAware Approximate
Fri 08:00:00 AM 31.0449 -78.5629 196° South  Level FlightAware Approximate
Fri 08:01:00 AM 30.9349 -78.5972 194° South  Level FlightAware Approximate
Fri 08:02:00 AM 30.8244 -78.6288 194° South  Level FlightAware Approximate
Fri 08:03:00 AM 30.7139 -78.6604 194° South  Level FlightAware Approximate
Fri 08:04:00 AM 30.6028 -78.6888 189° South  Level FlightAware Approximate
Fri 08:05:00 AM 30.4903 -78.7090 189° South  Level FlightAware Approximate
Fri 08:06:00 AM 30.3778 -78.7291 189° South  Level FlightAware Approximate
Fri 08:07:00 AM 30.2652 -78.7491 189° South  Level FlightAware Approximate
Fri 08:08:00 AM 30.1527 -78.7691 189° South  Level FlightAware Approximate
Fri 08:09:00 AM 30.0402 -78.7887 189° South  Level FlightAware Approximate
Fri 08:10:00 AM 29.9276 -78.8083 189° South  Level FlightAware Approximate
Fri 08:11:00 AM 29.8150 -78.8278 189° South  Level FlightAware Approximate
Fri 08:12:00 AM 29.7021 -78.8442 187° South  Level FlightAware Approximate
Fri 08:13:00 AM 29.5890 -78.8593 187° South  Level FlightAware Approximate
Fri 08:14:00 AM 29.4760 -78.8744 187° South  Level FlightAware Approximate
Fri 08:15:00 AM 29.3629 -78.8894 187° South  Level FlightAware Approximate
Fri 08:16:00 AM 29.2498 -78.9047 187° South  Level FlightAware Approximate
Fri 08:17:00 AM 29.1369 -78.9207 187° South  Level FlightAware Approximate
Fri 08:18:00 AM 29.0239 -78.9367 187° South  Level FlightAware Approximate
Fri 08:19:00 AM 28.9109 -78.9526 187° South  Level FlightAware Approximate
Fri 08:20:00 AM 28.7979 -78.9684 187° South  Level FlightAware Approximate
Fri 08:21:00 AM 28.6849 -78.9843 187° South  Level FlightAware Approximate
Fri 08:22:00 AM 28.5720 -79.0001 187° South  Level FlightAware Approximate
Fri 08:23:00 AM 28.4590 -79.0158 187° South  Level FlightAware Approximate
Fri 08:24:00 AM 28.3460 -79.0316 187° South  Level FlightAware Approximate
Fri 08:25:00 AM 28.2356 -79.0627 195° South  Level FlightAware Approximate
Fri 08:26:00 AM 28.1256 -79.0957 195° South  Level FlightAware Approximate
Fri 08:27:00 AM 28.0155 -79.1287 195° South  Level FlightAware Approximate
Fri 08:28:00 AM 27.9055 -79.1616 195° South  Level FlightAware Approximate
Fri 08:29:00 AM 27.7954 -79.1944 195° South  Level FlightAware Approximate
Fri 08:30:00 AM 27.6853 -79.2272 195° South  Level FlightAware Approximate
Fri 08:31:00 AM 27.5752 -79.2598 195° South  Level FlightAware Approximate
Fri 08:32:00 AM 27.4651 -79.2925 195° South  Level FlightAware Approximate
Fri 08:33:00 AM 27.3549 -79.3244 194° South  Level FlightAware Approximate
Fri 08:34:00 AM 27.2443 -79.3546 194° South  Level FlightAware Approximate
Fri 08:35:00 AM 27.1376 -79.3979 204° Southwest  Level FlightAware Approximate
Fri 08:36:00 AM 27.0285 -79.4333 180° South  Level FlightAware Approximate
Fri 08:37:00 AM 26.9182 -79.4606 197° South  Level FlightAware Approximate
Fri 08:38:00 AM 26.8088 -79.4957 195° South  Level FlightAware Approximate
Fri 08:39:00 AM 26.6988 -79.5287 195° South  Level FlightAware Approximate
Fri 08:40:00 AM 26.6033 -79.5687 200° South  Level FlightAware Approximate
Fri 08:41:00 AM 26.5085 -79.6330 241° Southwest  Level FlightAware Approximate
Fri 08:42:00 AM 26.4519 -79.7433 238° Southwest  Level FlightAware Approximate
Fri 08:43:00 AM 26.3919 -79.8513 238° Southwest  Level FlightAware Approximate
Fri 08:44:00 AM 26.3107 -79.9394 222° Southwest  Level FlightAware Approximate
Fri 08:45:00 AM 26.2186 -80.0088 194° South  Level FlightAware Approximate
Fri 08:46:00 AM 26.1081 -80.0395 194° South  Level FlightAware Approximate
Fri 08:47:00 AM 25.9977 -80.0701 194° South  Level FlightAware Approximate
Fri 08:48:00 AM 25.9237 -80.1490 246° West  Level FlightAware Approximate
Fri 08:49:00 AM 25.8829 -80.2671 222° Southwest  Level FlightAware Approximate
Fri 08:50:00 AM 25.7954 -80.2901 266° West  Level Estimated
Fri 08:51:00 AM 25.7954 -80.2901 275° West  Level Estimated
Fri 08:52:00 AM 25.7954 -80.2901 275° West  Level Estimated
Fri 08:53:00 AM 25.7954 -80.2901 103° East  Level Estimated
Fri 08:54:00 AM 25.7954 -80.2901 103° East  Level Estimated
Fri 08:55:00 AM 25.7954 -80.2901 103° East  Level Estimated
Fri 08:56:00 AM 25.7954 -80.2901 103° East  Level Estimated

Login

Don't have an account? Register now (free) for customized features, flight alerts, and more!